createdAt,value
2018-12-07T00:01:09.224Z,0
2018-12-07T00:02:19.158Z,0
2018-12-07T00:03:29.097Z,0
2018-12-07T00:04:39.030Z,0
2018-12-07T00:05:48.971Z,0
2018-12-07T00:06:58.950Z,0
2018-12-07T00:08:08.878Z,0
2018-12-07T00:09:18.813Z,0
2018-12-07T00:10:28.744Z,0
2018-12-07T00:11:38.429Z,0
2018-12-07T00:12:48.471Z,0
2018-12-07T00:13:58.413Z,0
2018-12-07T00:15:08.342Z,0
2018-12-07T00:16:18.269Z,0
2018-12-07T00:17:28.198Z,0
2018-12-07T00:18:38.181Z,0
2018-12-07T00:19:55.267Z,0
2018-12-07T00:21:05.205Z,0
2018-12-07T00:22:15.133Z,0
2018-12-07T00:23:25.062Z,0
2018-12-07T00:24:35.104Z,0
2018-12-07T00:25:45.028Z,0
2018-12-07T00:26:54.958Z,0
2018-12-07T00:28:04.886Z,0
2018-12-07T00:29:14.819Z,0
2018-12-07T00:30:24.907Z,0
2018-12-07T00:31:35.956Z,0
2018-12-07T00:32:45.883Z,0
2018-12-07T00:33:55.816Z,0
2018-12-07T00:35:05.744Z,0
2018-12-07T00:36:15.820Z,0
2018-12-07T00:37:25.747Z,0
2018-12-07T00:38:35.686Z,0
2018-12-07T00:39:45.613Z,0
2018-12-07T00:40:55.546Z,0
2018-12-07T00:42:05.574Z,0
2018-12-07T00:43:15.498Z,0
2018-12-07T00:44:25.426Z,0
2018-12-07T00:45:35.356Z,0
2018-12-07T00:46:45.287Z,0
2018-12-07T00:47:55.318Z,0
2018-12-07T00:49:05.263Z,0
2018-12-07T00:50:15.191Z,0
2018-12-07T00:51:25.117Z,0
2018-12-07T00:52:35.046Z,0
2018-12-07T00:53:45.030Z,0
2018-12-07T00:54:54.962Z,0
2018-12-07T00:56:04.649Z,0
2018-12-07T00:57:14.581Z,0
2018-12-07T00:58:24.517Z,0
2018-12-07T00:59:34.452Z,0
2018-12-07T01:00:44.379Z,0
2018-12-07T01:01:54.381Z,0
2018-12-07T01:03:04.307Z,0
2018-12-07T01:04:14.243Z,0
2018-12-07T01:05:24.320Z,0
2018-12-07T01:06:34.245Z,0
2018-12-07T01:07:44.177Z,0
2018-12-07T01:08:54.109Z,0
2018-12-07T01:10:04.036Z,0
2018-12-07T01:11:13.815Z,0
2018-12-07T01:12:23.741Z,0
2018-12-07T01:13:33.677Z,0
2018-12-07T01:14:43.606Z,0
2018-12-07T01:15:53.534Z,0
2018-12-07T01:17:03.560Z,0
2018-12-07T01:18:13.486Z,0
2018-12-07T01:19:23.411Z,0
2018-12-07T01:20:33.338Z,0
2018-12-07T01:21:43.268Z,0
2018-12-07T01:22:53.247Z,0
2018-12-07T01:24:03.178Z,0
2018-12-07T01:25:13.104Z,0
2018-12-07T01:26:23.034Z,0
2018-12-07T01:27:32.962Z,0
2018-12-07T01:28:42.951Z,0
2018-12-07T01:29:52.908Z,0
2018-12-07T01:31:02.848Z,0
2018-12-07T01:32:12.527Z,0
2018-12-07T01:33:22.461Z,0
2018-12-07T01:34:32.446Z,0
2018-12-07T01:35:42.375Z,0
2018-12-07T01:36:52.305Z,0
2018-12-07T01:38:02.233Z,0
2018-12-07T01:39:12.160Z,0
2018-12-07T01:40:22.184Z,0
2018-12-07T01:41:32.110Z,0
2018-12-07T01:42:42.040Z,0
2018-12-07T01:43:51.976Z,0
2018-12-07T01:45:01.901Z,0
2018-12-07T01:46:11.933Z,0
2018-12-07T01:47:21.867Z,0
2018-12-07T01:48:31.798Z,0
2018-12-07T01:49:41.725Z,0
2018-12-07T01:50:51.657Z,0
2018-12-07T01:52:01.692Z,0
2018-12-07T01:53:11.627Z,0
2018-12-07T01:54:21.557Z,0
2018-12-07T01:55:31.495Z,0
2018-12-07T01:56:41.423Z,0
2018-12-07T01:57:51.449Z,0
2018-12-07T01:59:01.379Z,0
2018-12-07T02:00:11.313Z,0
2018-12-07T02:01:20.990Z,0
2018-12-07T02:02:30.922Z,0
2018-12-07T02:03:40.947Z,0
2018-12-07T02:04:50.872Z,0
2018-12-07T02:06:00.803Z,0
2018-12-07T02:07:10.730Z,0
2018-12-07T02:08:20.656Z,0
2018-12-07T02:09:30.738Z,0
2018-12-07T02:10:40.661Z,0
2018-12-07T02:11:50.599Z,0
2018-12-07T02:13:00.532Z,0
2018-12-07T02:14:10.461Z,0
2018-12-07T02:15:20.507Z,0
2018-12-07T02:16:30.438Z,0
2018-12-07T02:17:40.371Z,0
2018-12-07T02:18:50.300Z,0
2018-12-07T02:20:00.231Z,0
2018-12-07T02:21:10.221Z,0
2018-12-07T02:22:20.146Z,0
2018-12-07T02:23:30.082Z,0
2018-12-07T02:24:40.014Z,0
2018-12-07T02:25:49.941Z,0
2018-12-07T02:27:00.804Z,0
2018-12-07T02:28:10.870Z,0
2018-12-07T02:29:20.806Z,0
2018-12-07T02:30:30.756Z,0
2018-12-07T02:31:40.686Z,0
2018-12-07T02:32:50.672Z,0
2018-12-07T02:34:00.603Z,0
2018-12-07T02:35:10.671Z,0
2018-12-07T02:36:20.602Z,0
2018-12-07T02:37:30.315Z,0
2018-12-07T02:38:40.297Z,0
2018-12-07T02:39:50.241Z,0
2018-12-07T02:41:00.175Z,0
2018-12-07T02:42:10.109Z,0
2018-12-07T02:43:20.045Z,0
2018-12-07T02:44:29.775Z,0
2018-12-07T02:45:39.458Z,0
2018-12-07T02:46:49.390Z,0
2018-12-07T02:47:59.324Z,0
2018-12-07T02:49:09.279Z,0
2018-12-07T02:50:19.260Z,0
2018-12-07T02:51:29.189Z,0
2018-12-07T02:52:39.133Z,0
2018-12-07T02:53:48.813Z,0
2018-12-07T02:54:58.876Z,0
2018-12-07T02:56:08.855Z,0
2018-12-07T02:57:18.778Z,0
2018-12-07T02:58:28.710Z,0
2018-12-07T02:59:38.639Z,0
2018-12-07T03:00:48.564Z,0
2018-12-07T03:01:58.543Z,0
2018-12-07T03:03:08.476Z,0
2018-12-07T03:04:18.403Z,0
2018-12-07T03:05:28.339Z,0
2018-12-07T03:06:38.020Z,0
2018-12-07T03:07:48.024Z,0
2018-12-07T03:08:57.973Z,0
2018-12-07T03:10:07.936Z,0
2018-12-07T03:11:17.889Z,0
2018-12-07T03:12:27.816Z,0
2018-12-07T03:13:37.862Z,0
2018-12-07T03:14:47.794Z,0
2018-12-07T03:15:57.793Z,0
2018-12-07T03:17:07.737Z,0
2018-12-07T03:18:17.685Z,0
2018-12-07T03:19:27.716Z,0
2018-12-07T03:20:37.646Z,0
2018-12-07T03:21:47.607Z,0
2018-12-07T03:22:57.541Z,0
2018-12-07T03:24:07.483Z,0
2018-12-07T03:25:17.531Z,0
2018-12-07T03:26:27.469Z,0
2018-12-07T03:27:37.397Z,0
2018-12-07T03:28:47.330Z,0
2018-12-07T03:29:57.267Z,0
2018-12-07T03:31:07.280Z,0
2018-12-07T03:32:17.260Z,0
2018-12-07T03:33:27.209Z,0
2018-12-07T03:34:37.138Z,0
2018-12-07T03:35:46.835Z,0
2018-12-07T03:36:56.937Z,0
2018-12-07T03:38:06.908Z,0
2018-12-07T03:39:16.864Z,0
2018-12-07T03:40:26.799Z,0
2018-12-07T03:41:36.790Z,0
2018-12-07T03:42:46.793Z,0
2018-12-07T03:43:56.719Z,0
2018-12-07T03:45:06.646Z,0
2018-12-07T03:46:16.580Z,0
2018-12-07T03:47:26.515Z,0
2018-12-07T03:48:36.564Z,0
2018-12-07T03:49:46.535Z,0
2018-12-07T03:50:56.483Z,0
2018-12-07T03:52:06.415Z,0
2018-12-07T03:53:16.359Z,0
2018-12-07T03:54:26.435Z,0
2018-12-07T03:55:36.373Z,0
2018-12-07T03:56:46.313Z,0
2018-12-07T03:57:56.239Z,0
2018-12-07T03:59:06.179Z,0
2018-12-07T04:00:16.261Z,0
2018-12-07T04:01:26.190Z,0
2018-12-07T04:02:36.132Z,0
2018-12-07T04:03:46.717Z,0
2018-12-07T04:04:56.649Z,0
2018-12-07T04:06:06.753Z,0
2018-12-07T04:07:16.689Z,0
2018-12-07T04:08:26.623Z,0
2018-12-07T04:09:36.552Z,0
2018-12-07T04:10:46.477Z,0
2018-12-07T04:11:56.457Z,0
2018-12-07T04:13:06.395Z,0
2018-12-07T04:14:16.359Z,0
2018-12-07T04:15:26.293Z,0
2018-12-07T04:16:36.229Z,0
2018-12-07T04:17:46.217Z,0
2018-12-07T04:18:56.171Z,0
2018-12-07T04:20:05.859Z,0
2018-12-07T04:21:15.808Z,0
2018-12-07T04:22:25.734Z,0
2018-12-07T04:23:35.720Z,0
2018-12-07T04:24:45.649Z,0
2018-12-07T04:25:55.577Z,0
2018-12-07T04:27:05.512Z,0
2018-12-07T04:28:15.463Z,0
2018-12-07T04:29:25.451Z,0
2018-12-07T04:30:35.390Z,0
2018-12-07T04:31:45.330Z,0
2018-12-07T04:32:55.263Z,0
2018-12-07T04:34:05.207Z,0
2018-12-07T04:35:15.274Z,0
2018-12-07T04:36:25.227Z,0
2018-12-07T04:37:34.961Z,0
2018-12-07T04:38:44.963Z,0
2018-12-07T04:39:54.902Z,0
2018-12-07T04:41:04.883Z,0
2018-12-07T04:42:14.844Z,0
2018-12-07T04:43:24.786Z,0
2018-12-07T04:44:34.738Z,0
2018-12-07T04:45:44.669Z,0
2018-12-07T04:46:54.659Z,0
2018-12-07T04:48:04.601Z,0
2018-12-07T04:49:14.547Z,0
2018-12-07T04:50:24.482Z,0
2018-12-07T04:51:34.429Z,0
2018-12-07T04:52:44.518Z,0
2018-12-07T04:53:54.464Z,0
2018-12-07T04:55:04.403Z,0
2018-12-07T04:56:14.332Z,0
2018-12-07T04:57:24.271Z,0
2018-12-07T04:58:34.333Z,0
2018-12-07T04:59:44.268Z,0
2018-12-07T05:00:54.206Z,0
2018-12-07T05:02:04.160Z,0
2018-12-07T05:03:14.117Z,0
2018-12-07T05:04:24.366Z,0
2018-12-07T05:05:34.311Z,0
2018-12-07T05:06:44.261Z,0
2018-12-07T05:07:54.195Z,0
2018-12-07T05:09:04.146Z,0
2018-12-07T05:10:14.216Z,0
2018-12-07T05:11:24.159Z,0
2018-12-07T05:12:33.835Z,0
2018-12-07T05:13:43.526Z,0
2018-12-07T05:14:53.459Z,0
2018-12-07T05:16:03.539Z,0
2018-12-07T05:17:13.479Z,0
2018-12-07T05:18:23.493Z,0
2018-12-07T05:19:33.434Z,0
2018-12-07T05:20:43.375Z,0
2018-12-07T05:21:53.404Z,0
2018-12-07T05:23:03.351Z,0
2018-12-07T05:24:13.351Z,0
2018-12-07T05:25:23.288Z,0
2018-12-07T05:26:33.215Z,0
2018-12-07T05:27:43.049Z,0
2018-12-07T05:28:52.983Z,0
2018-12-07T05:30:02.912Z,0
2018-12-07T05:31:12.858Z,0
2018-12-07T05:32:22.798Z,0
2018-12-07T05:33:32.847Z,0
2018-12-07T05:34:42.783Z,0
2018-12-07T05:35:52.728Z,0
2018-12-07T05:37:02.671Z,0
2018-12-07T05:38:12.610Z,0
2018-12-07T05:39:22.588Z,0
2018-12-07T05:40:32.532Z,0
2018-12-07T05:41:42.472Z,0
2018-12-07T05:42:52.489Z,0
2018-12-07T05:44:02.447Z,0
2018-12-07T05:45:12.501Z,0
2018-12-07T05:46:22.449Z,0
2018-12-07T05:47:32.386Z,0
2018-12-07T05:48:42.319Z,0
2018-12-07T05:49:52.262Z,0
2018-12-07T05:51:02.296Z,0
2018-12-07T05:52:12.316Z,0
2018-12-07T05:53:22.243Z,0
2018-12-07T05:54:32.181Z,0
2018-12-07T05:55:42.123Z,0
2018-12-07T05:56:52.166Z,0
2018-12-07T05:58:01.848Z,0
2018-12-07T05:59:11.783Z,0
2018-12-07T06:00:21.724Z,0
2018-12-07T06:01:31.666Z,0
2018-12-07T06:02:41.644Z,0
2018-12-07T06:03:51.579Z,0
2018-12-07T06:05:01.513Z,0
2018-12-07T06:06:11.451Z,0
2018-12-07T06:07:21.393Z,0
2018-12-07T06:08:31.130Z,0
2018-12-07T06:09:41.061Z,0
2018-12-07T06:10:50.993Z,0
2018-12-07T06:12:02.342Z,0
2018-12-07T06:13:12.281Z,0
2018-12-07T06:14:22.266Z,0
2018-12-07T06:15:32.199Z,0
2018-12-07T06:16:42.132Z,0
2018-12-07T06:17:52.062Z,0
2018-12-07T06:19:02.001Z,0
2018-12-07T06:20:11.991Z,0
2018-12-07T06:21:21.924Z,0
2018-12-07T06:22:31.859Z,0
2018-12-07T06:23:41.789Z,0
2018-12-07T06:24:51.738Z,0
2018-12-07T06:26:01.722Z,0
2018-12-07T06:27:13.174Z,0
2018-12-07T06:28:23.101Z,0
2018-12-07T06:29:33.109Z,0
2018-12-07T06:30:43.056Z,0
2018-12-07T06:31:53.032Z,0
2018-12-07T06:33:03.781Z,0
2018-12-07T06:34:13.759Z,0
2018-12-07T06:35:23.693Z,0
2018-12-07T06:36:33.627Z,0
2018-12-07T06:37:43.711Z,0
2018-12-07T06:38:53.637Z,0
2018-12-07T06:40:03.572Z,0
2018-12-07T06:41:13.503Z,0
2018-12-07T06:42:23.436Z,0
2018-12-07T06:43:33.461Z,0
2018-12-07T06:44:43.384Z,0
2018-12-07T06:45:53.316Z,0
2018-12-07T06:47:03.239Z,0
2018-12-07T06:48:13.179Z,0
2018-12-07T06:49:23.160Z,0
2018-12-07T06:50:33.091Z,0
2018-12-07T06:51:43.027Z,0
2018-12-07T06:52:52.955Z,0
2018-12-07T06:54:02.892Z,0
2018-12-07T06:55:12.977Z,0
2018-12-07T06:56:22.650Z,0
2018-12-07T06:57:32.639Z,0
2018-12-07T06:58:42.572Z,0
2018-12-07T06:59:52.503Z,0
2018-12-07T07:01:02.488Z,0
2018-12-07T07:02:12.419Z,0
2018-12-07T07:03:22.347Z,0
2018-12-07T07:04:32.283Z,0
2018-12-07T07:05:42.208Z,0
2018-12-07T07:06:52.190Z,0
2018-12-07T07:08:02.121Z,0
2018-12-07T07:09:12.056Z,0
2018-12-07T07:10:21.992Z,0
2018-12-07T07:11:31.948Z,0
2018-12-07T07:12:42.026Z,0
2018-12-07T07:13:51.954Z,0
2018-12-07T07:15:01.891Z,0
2018-12-07T07:16:11.817Z,0
2018-12-07T07:17:21.753Z,0
2018-12-07T07:18:31.787Z,0
2018-12-07T07:19:41.717Z,0
2018-12-07T07:20:51.651Z,0
2018-12-07T07:22:01.661Z,0
2018-12-07T07:23:11.588Z,0
2018-12-07T07:24:21.627Z,0
2018-12-07T07:25:31.560Z,0
2018-12-07T07:26:41.491Z,0
2018-12-07T07:27:51.422Z,0
2018-12-07T07:29:01.351Z,0
2018-12-07T07:30:11.437Z,0
2018-12-07T07:31:21.393Z,0
2018-12-07T07:32:31.327Z,0
2018-12-07T07:33:41.261Z,0
2018-12-07T07:34:51.195Z,0
2018-12-07T07:36:01.328Z,0
2018-12-07T07:37:11.254Z,0
2018-12-07T07:38:21.187Z,0
2018-12-07T07:39:31.117Z,0
2018-12-07T07:40:41.052Z,0
2018-12-07T07:41:51.137Z,0
2018-12-07T07:43:01.071Z,0
2018-12-07T07:44:11.004Z,0
2018-12-07T07:45:21.029Z,0
2018-12-07T07:46:30.959Z,0
2018-12-07T07:47:40.956Z,0
2018-12-07T07:48:50.887Z,0
2018-12-07T07:50:00.824Z,0
2018-12-07T07:51:10.756Z,0
2018-12-07T07:52:20.689Z,0
2018-12-07T07:53:30.680Z,0
2018-12-07T07:54:40.620Z,0
2018-12-07T07:55:50.546Z,0
2018-12-07T07:57:00.480Z,0
2018-12-07T07:58:10.169Z,0
2018-12-07T07:59:20.247Z,0
2018-12-07T08:00:30.184Z,5
2018-12-07T08:01:40.113Z,5
2018-12-07T08:02:50.046Z,5
2018-12-07T08:03:59.995Z,5
2018-12-07T08:05:10.059Z,5
2018-12-07T08:06:20.016Z,5
2018-12-07T08:07:29.945Z,5
2018-12-07T08:08:39.873Z,5
2018-12-07T08:09:49.808Z,5
2018-12-07T08:10:59.835Z,5
2018-12-07T08:12:09.771Z,5
2018-12-07T08:13:19.709Z,10
2018-12-07T08:14:29.645Z,10
2018-12-07T08:15:39.580Z,10
2018-12-07T08:16:49.617Z,10
2018-12-07T08:17:59.547Z,10
2018-12-07T08:19:09.476Z,10
2018-12-07T08:20:19.407Z,10
2018-12-07T08:21:29.340Z,15
2018-12-07T08:22:39.416Z,15
2018-12-07T08:23:49.349Z,15
2018-12-07T08:24:59.288Z,15
2018-12-07T08:26:09.230Z,15
2018-12-07T08:27:19.164Z,15
2018-12-07T08:28:29.914Z,20
2018-12-07T08:29:39.847Z,20
2018-12-07T08:30:49.777Z,20
2018-12-07T08:31:59.708Z,20
2018-12-07T08:33:09.645Z,20
2018-12-07T08:34:19.726Z,20
2018-12-07T08:35:29.662Z,20
2018-12-07T08:36:39.595Z,20
2018-12-07T08:37:49.521Z,25
2018-12-07T08:38:59.448Z,25
2018-12-07T08:40:09.434Z,25
2018-12-07T08:41:19.452Z,25
2018-12-07T08:42:29.440Z,25
2018-12-07T08:43:39.402Z,30
2018-12-07T08:44:49.330Z,30
2018-12-07T08:45:59.419Z,30
2018-12-07T08:47:09.349Z,30
2018-12-07T08:48:19.286Z,30
2018-12-07T08:49:29.219Z,30
2018-12-07T08:50:39.149Z,30
2018-12-07T08:51:49.228Z,35
2018-12-07T08:52:59.157Z,35
2018-12-07T08:54:09.088Z,35
2018-12-07T08:55:19.016Z,35
2018-12-07T08:56:30.434Z,40
2018-12-07T08:57:40.531Z,40
2018-12-07T08:58:50.461Z,40
2018-12-07T09:00:00.389Z,40
2018-12-07T09:01:10.324Z,40
2018-12-07T09:02:20.254Z,40
2018-12-07T09:03:30.363Z,45
2018-12-07T09:04:40.295Z,45
2018-12-07T09:05:50.229Z,45
2018-12-07T09:07:00.158Z,45
2018-12-07T09:08:17.450Z,50
2018-12-07T09:09:27.481Z,50
2018-12-07T09:10:37.418Z,50
2018-12-07T09:11:47.350Z,50
2018-12-07T09:12:57.043Z,50
2018-12-07T09:14:06.980Z,50
2018-12-07T09:15:17.066Z,55
2018-12-07T09:16:27.010Z,55
2018-12-07T09:17:36.947Z,55
2018-12-07T09:18:46.886Z,55
2018-12-07T09:19:56.816Z,55
2018-12-07T09:21:06.646Z,55
2018-12-07T09:22:16.582Z,55
2018-12-07T09:23:26.518Z,55
2018-12-07T09:24:36.451Z,55
2018-12-07T09:25:46.389Z,55
2018-12-07T09:26:56.403Z,55
2018-12-07T09:28:06.341Z,55
2018-12-07T09:29:16.285Z,55
2018-12-07T09:30:26.230Z,55
2018-12-07T09:31:36.157Z,55
2018-12-07T09:32:46.136Z,60
2018-12-07T09:33:56.084Z,60
2018-12-07T09:35:06.020Z,65
2018-12-07T09:36:15.952Z,65
2018-12-07T09:37:25.996Z,65
2018-12-07T09:38:36.082Z,65
2018-12-07T09:39:46.011Z,65
2018-12-07T09:40:55.692Z,65
2018-12-07T09:42:05.633Z,70
2018-12-07T09:43:15.560Z,70
2018-12-07T09:44:25.540Z,70
2018-12-07T09:45:35.474Z,70
2018-12-07T09:46:45.409Z,70
2018-12-07T09:47:55.429Z,70
2018-12-07T09:49:05.359Z,70
2018-12-07T09:50:15.473Z,70
2018-12-07T09:51:25.405Z,70
2018-12-07T09:52:35.340Z,70
2018-12-07T09:53:45.293Z,75
2018-12-07T09:54:55.230Z,75
2018-12-07T09:56:05.260Z,70
2018-12-07T09:57:15.201Z,70
2018-12-07T09:58:25.131Z,65
2018-12-07T09:59:35.058Z,65
2018-12-07T10:00:44.990Z,65
2018-12-07T10:01:54.981Z,65
2018-12-07T10:03:04.931Z,65
2018-12-07T10:04:14.620Z,65
2018-12-07T10:05:24.566Z,65
2018-12-07T10:06:34.508Z,65
2018-12-07T10:07:44.493Z,65
2018-12-07T10:08:54.437Z,65
2018-12-07T10:10:04.378Z,65
2018-12-07T10:11:14.318Z,65
2018-12-07T10:12:24.248Z,65
2018-12-07T10:13:34.236Z,65
2018-12-07T10:14:44.164Z,65
2018-12-07T10:15:53.840Z,65
2018-12-07T10:17:03.771Z,65
2018-12-07T10:18:13.703Z,65
2018-12-07T10:19:23.733Z,65
2018-12-07T10:20:33.670Z,65
2018-12-07T10:21:43.605Z,65
2018-12-07T10:22:53.539Z,65
2018-12-07T10:24:03.468Z,65
2018-12-07T10:25:13.549Z,65
2018-12-07T10:26:23.481Z,65
2018-12-07T10:27:33.423Z,60
2018-12-07T10:28:43.359Z,60
2018-12-07T10:29:53.299Z,60
2018-12-07T10:31:03.285Z,60
2018-12-07T10:32:13.223Z,55
2018-12-07T10:33:23.201Z,55
2018-12-07T10:34:33.160Z,50
2018-12-07T10:35:43.106Z,50
2018-12-07T10:36:53.087Z,45
2018-12-07T10:38:03.013Z,45
2018-12-07T10:39:12.956Z,45
2018-12-07T10:40:22.891Z,45
2018-12-07T10:41:32.905Z,50
2018-12-07T10:42:42.938Z,50
2018-12-07T10:43:52.876Z,50
2018-12-07T10:45:02.807Z,50
2018-12-07T10:46:12.742Z,50
2018-12-07T10:47:22.676Z,50
2018-12-07T10:48:32.608Z,50
2018-12-07T10:49:42.545Z,50
2018-12-07T10:50:52.482Z,50
2018-12-07T10:52:02.414Z,50
2018-12-07T10:53:12.344Z,55
2018-12-07T10:54:22.375Z,55
2018-12-07T10:55:32.316Z,50
2018-12-07T10:56:42.246Z,55
2018-12-07T10:57:52.186Z,55
2018-12-07T10:59:02.132Z,55
2018-12-07T11:00:12.145Z,60
2018-12-07T11:01:22.084Z,60
2018-12-07T11:02:32.025Z,60
2018-12-07T11:03:41.966Z,55
2018-12-07T11:04:51.898Z,60
2018-12-07T11:06:01.674Z,60
2018-12-07T11:07:11.611Z,60
2018-12-07T11:08:21.542Z,60
2018-12-07T11:09:31.569Z,60
2018-12-07T11:10:41.505Z,65
2018-12-07T11:11:51.438Z,65
2018-12-07T11:13:01.375Z,70
2018-12-07T11:14:11.315Z,70
2018-12-07T11:15:21.259Z,75
2018-12-07T11:16:31.193Z,75
2018-12-07T11:17:41.128Z,75
2018-12-07T11:18:51.135Z,75
2018-12-07T11:20:01.068Z,75
2018-12-07T11:21:11.000Z,75
2018-12-07T11:22:22.478Z,75
2018-12-07T11:23:32.515Z,75
2018-12-07T11:24:42.444Z,75
2018-12-07T11:25:52.376Z,70
2018-12-07T11:27:02.317Z,70
2018-12-07T11:28:12.255Z,65
2018-12-07T11:29:22.249Z,65
2018-12-07T11:30:32.184Z,60
2018-12-07T11:31:42.125Z,60
2018-12-07T11:32:52.063Z,55
2018-12-07T11:34:02.081Z,55
2018-12-07T11:35:12.074Z,60
2018-12-07T11:36:22.010Z,60
2018-12-07T11:37:31.940Z,65
2018-12-07T11:38:41.883Z,65
2018-12-07T11:39:51.824Z,65
2018-12-07T11:41:01.759Z,65
2018-12-07T11:42:11.703Z,70
2018-12-07T11:43:21.637Z,70
2018-12-07T11:44:31.577Z,70
2018-12-07T11:45:41.508Z,70
2018-12-07T11:46:51.540Z,75
2018-12-07T11:48:01.475Z,75
2018-12-07T11:49:11.402Z,75
2018-12-07T11:50:21.334Z,75
2018-12-07T11:51:31.266Z,75
2018-12-07T11:52:41.199Z,75
2018-12-07T11:53:51.134Z,75
2018-12-07T11:55:01.117Z,75
2018-12-07T11:56:11.056Z,75
2018-12-07T11:57:20.994Z,75
2018-12-07T11:58:30.923Z,75
2018-12-07T11:59:40.852Z,75
2018-12-07T12:00:50.784Z,75
2018-12-07T12:02:00.736Z,75
2018-12-07T12:03:10.667Z,75
2018-12-07T12:04:20.652Z,75
2018-12-07T12:05:30.649Z,75
2018-12-07T12:06:40.579Z,75
2018-12-07T12:07:50.515Z,75
2018-12-07T12:09:00.466Z,75
2018-12-07T12:10:10.585Z,75
2018-12-07T12:11:20.518Z,80
2018-12-07T12:12:30.456Z,80
2018-12-07T12:13:40.392Z,85
2018-12-07T12:14:50.322Z,80
2018-12-07T12:16:00.358Z,80
2018-12-07T12:17:10.289Z,75
2018-12-07T12:18:20.220Z,70
2018-12-07T12:19:30.158Z,70
2018-12-07T12:20:40.090Z,70
2018-12-07T12:21:50.034Z,70
2018-12-07T12:23:00.044Z,70
2018-12-07T12:24:09.826Z,65
2018-12-07T12:25:19.755Z,65
2018-12-07T12:26:29.698Z,65
2018-12-07T12:27:39.734Z,65
2018-12-07T12:28:49.674Z,60
2018-12-07T12:29:59.608Z,60
2018-12-07T12:31:09.552Z,60
2018-12-07T12:32:19.231Z,60
2018-12-07T12:33:29.272Z,55
2018-12-07T12:34:39.210Z,55
2018-12-07T12:35:49.154Z,55
2018-12-07T12:36:59.091Z,55
2018-12-07T12:38:09.020Z,55
2018-12-07T12:39:19.103Z,55
2018-12-07T12:40:29.044Z,55
2018-12-07T12:41:46.449Z,55
2018-12-07T12:42:56.659Z,55
2018-12-07T12:44:06.597Z,55
2018-12-07T12:45:16.633Z,55
2018-12-07T12:46:26.563Z,55
2018-12-07T12:47:36.492Z,55
2018-12-07T12:48:46.503Z,55
2018-12-07T12:49:56.433Z,55
2018-12-07T12:51:06.466Z,50
2018-12-07T12:52:16.407Z,50
2018-12-07T12:53:27.429Z,50
2018-12-07T12:54:37.364Z,50
2018-12-07T12:55:47.297Z,55
2018-12-07T12:56:57.331Z,50
2018-12-07T12:58:07.271Z,50
2018-12-07T12:59:17.005Z,50
2018-12-07T13:00:26.944Z,50
2018-12-07T13:01:36.877Z,45
2018-12-07T13:02:46.915Z,45
2018-12-07T13:03:56.864Z,40
2018-12-07T13:05:06.793Z,40
2018-12-07T13:06:16.733Z,40
2018-12-07T13:07:26.674Z,40
2018-12-07T13:08:36.708Z,40
2018-12-07T13:09:46.641Z,40
2018-12-07T13:10:56.583Z,35
2018-12-07T13:12:06.531Z,35
2018-12-07T13:13:16.505Z,35
2018-12-07T13:14:26.594Z,35
2018-12-07T13:15:36.539Z,35
2018-12-07T13:16:46.476Z,35
2018-12-07T13:17:56.409Z,35
2018-12-07T13:19:06.340Z,30
2018-12-07T13:20:16.253Z,30
2018-12-07T13:21:26.198Z,30
2018-12-07T13:22:36.131Z,30
2018-12-07T13:23:46.069Z,30
2018-12-07T13:24:56.004Z,30
2018-12-07T13:26:06.099Z,25
2018-12-07T13:27:17.621Z,25
2018-12-07T13:28:27.556Z,25
2018-12-07T13:29:37.490Z,25
2018-12-07T13:30:47.432Z,25
2018-12-07T13:31:57.463Z,25
2018-12-07T13:33:07.396Z,25
2018-12-07T13:34:17.344Z,25
2018-12-07T13:35:28.523Z,25
2018-12-07T13:36:38.468Z,25
2018-12-07T13:37:48.414Z,20
2018-12-07T13:38:58.344Z,20
2018-12-07T13:40:08.983Z,20
2018-12-07T13:41:19.653Z,20
2018-12-07T13:42:30.591Z,20
2018-12-07T13:43:41.154Z,20
2018-12-07T13:44:51.684Z,20
2018-12-07T13:46:02.689Z,15
2018-12-07T13:47:13.514Z,15
2018-12-07T13:48:24.237Z,15
2018-12-07T13:49:34.914Z,10
2018-12-07T13:50:45.238Z,10
2018-12-07T13:51:55.913Z,10
2018-12-07T13:53:06.490Z,10
2018-12-07T13:54:17.289Z,10
2018-12-07T13:55:28.104Z,5
2018-12-07T13:56:38.458Z,5
2018-12-07T13:57:48.825Z,5
2018-12-07T13:58:59.254Z,5
2018-12-07T14:00:09.664Z,5
2018-12-07T14:01:20.686Z,0
2018-12-07T14:02:31.196Z,0
2018-12-07T14:03:41.782Z,0
2018-12-07T14:04:52.015Z,0
2018-12-07T14:06:02.366Z,0
2018-12-07T14:07:12.669Z,0
2018-12-07T14:08:23.902Z,0
2018-12-07T14:09:34.150Z,0
2018-12-07T14:10:44.811Z,0
2018-12-07T14:11:56.159Z,0
2018-12-07T14:13:06.478Z,0
2018-12-07T14:14:17.019Z,0
2018-12-07T14:15:27.544Z,0
2018-12-07T14:16:37.796Z,0
2018-12-07T14:17:48.558Z,0
2018-12-07T14:18:59.007Z,0
2018-12-07T14:20:09.450Z,0
2018-12-07T14:21:20.074Z,0
2018-12-07T14:22:30.444Z,0
2018-12-07T14:23:40.999Z,0
2018-12-07T14:24:51.382Z,0
2018-12-07T14:26:01.695Z,0
2018-12-07T14:27:12.253Z,0
2018-12-07T14:28:22.979Z,0
2018-12-07T14:29:34.980Z,0
2018-12-07T14:30:46.337Z,0
2018-12-07T14:31:56.545Z,0
2018-12-07T14:33:06.868Z,0
2018-12-07T14:34:17.252Z,0
2018-12-07T14:35:27.501Z,0
2018-12-07T14:36:38.256Z,0
2018-12-07T14:37:48.815Z,0
2018-12-07T14:39:00.421Z,0
2018-12-07T14:40:10.845Z,0
2018-12-07T14:41:21.303Z,0
2018-12-07T14:42:31.661Z,0
2018-12-07T14:43:41.288Z,0
2018-12-07T14:44:51.603Z,0
2018-12-07T14:46:02.125Z,0
2018-12-07T14:47:12.611Z,0
2018-12-07T14:48:23.516Z,0
2018-12-07T14:49:34.660Z,0
2018-12-07T14:50:45.144Z,0
2018-12-07T14:51:55.231Z,0
2018-12-07T14:53:06.043Z,0
2018-12-07T14:54:16.816Z,0
2018-12-07T14:55:26.852Z,0
2018-12-07T14:56:37.105Z,0
2018-12-07T14:57:47.924Z,0
2018-12-07T14:58:58.179Z,0
2018-12-07T15:00:09.039Z,0
2018-12-07T15:01:19.353Z,0
2018-12-07T15:02:30.034Z,0
2018-12-07T15:03:40.637Z,0
2018-12-07T15:04:51.307Z,0
2018-12-07T15:06:02.056Z,0
2018-12-07T15:07:12.441Z,0
2018-12-07T15:08:23.061Z,0
2018-12-07T15:09:33.910Z,0
2018-12-07T15:10:44.425Z,0
2018-12-07T15:11:55.076Z,0
2018-12-07T15:13:05.454Z,0
2018-12-07T15:14:15.589Z,0
2018-12-07T15:15:26.086Z,0
2018-12-07T15:16:36.679Z,0
2018-12-07T15:17:47.547Z,0
2018-12-07T15:18:57.942Z,0
2018-12-07T15:20:08.699Z,0
2018-12-07T15:21:19.235Z,0
2018-12-07T15:22:29.664Z,0
2018-12-07T15:23:40.244Z,0
2018-12-07T15:24:51.029Z,0
2018-12-07T15:26:01.551Z,0
2018-12-07T15:27:12.139Z,0
2018-12-07T15:28:22.542Z,0
2018-12-07T15:29:32.842Z,0
2018-12-07T15:30:43.458Z,0
2018-12-07T15:31:53.650Z,0
2018-12-07T15:33:03.886Z,0
2018-12-07T15:34:14.630Z,0
2018-12-07T15:35:25.576Z,0
2018-12-07T15:36:36.308Z,0
2018-12-07T15:37:46.874Z,0
2018-12-07T15:38:57.517Z,0
2018-12-07T15:40:08.090Z,0
2018-12-07T15:41:18.729Z,0
2018-12-07T15:42:29.285Z,0
2018-12-07T15:43:40.176Z,0
2018-12-07T15:44:50.948Z,0
2018-12-07T15:46:01.402Z,0
2018-12-07T15:47:11.825Z,0
2018-12-07T15:48:23.844Z,0
2018-12-07T15:49:34.451Z,0
2018-12-07T15:50:44.686Z,0
2018-12-07T15:51:55.357Z,0
2018-12-07T15:53:05.875Z,0
2018-12-07T15:54:16.195Z,0
2018-12-07T15:55:26.637Z,0
2018-12-07T15:56:36.840Z,0
2018-12-07T15:57:47.484Z,0
2018-12-07T15:58:58.351Z,0
2018-12-07T16:00:08.857Z,0
2018-12-07T16:01:21.111Z,0
2018-12-07T16:02:31.144Z,0
2018-12-07T16:03:41.912Z,0
2018-12-07T16:04:52.483Z,0
2018-12-07T16:06:02.843Z,0
2018-12-07T16:07:13.165Z,0
2018-12-07T16:08:30.207Z,0
2018-12-07T16:09:40.968Z,0
2018-12-07T16:11:01.116Z,0
2018-12-07T16:12:11.443Z,0
2018-12-07T16:13:21.489Z,0
2018-12-07T16:14:32.146Z,0
2018-12-07T16:15:43.268Z,0
2018-12-07T16:16:54.120Z,0
2018-12-07T16:18:04.316Z,0
2018-12-07T16:19:14.853Z,0
2018-12-07T16:20:25.156Z,0
2018-12-07T16:21:35.460Z,0
2018-12-07T16:22:46.099Z,0
2018-12-07T16:23:56.362Z,0
2018-12-07T16:25:06.649Z,0
2018-12-07T16:26:17.650Z,0
2018-12-07T16:27:28.198Z,0
2018-12-07T16:28:38.833Z,0
2018-12-07T16:29:49.322Z,0
2018-12-07T16:31:00.004Z,0
2018-12-07T16:32:10.262Z,0
2018-12-07T16:33:21.520Z,0
2018-12-07T16:34:31.908Z,0
2018-12-07T16:35:42.453Z,0
2018-12-07T16:36:52.928Z,0
2018-12-07T16:38:03.293Z,0
2018-12-07T16:39:13.892Z,0
2018-12-07T16:40:24.180Z,0
2018-12-07T16:41:34.704Z,0
2018-12-07T16:42:45.021Z,0
2018-12-07T16:43:55.458Z,0
2018-12-07T16:45:05.740Z,0
2018-12-07T16:46:16.351Z,0
2018-12-07T16:47:26.791Z,0
2018-12-07T16:48:37.322Z,0
2018-12-07T16:49:47.809Z,0
2018-12-07T16:50:58.078Z,0
2018-12-07T16:52:08.828Z,0
2018-12-07T16:53:19.292Z,0
2018-12-07T16:54:29.829Z,0
2018-12-07T16:55:40.065Z,0
2018-12-07T16:56:51.179Z,0
2018-12-07T16:58:01.630Z,0
2018-12-07T16:59:11.934Z,0
2018-12-07T17:00:22.359Z,0
2018-12-07T17:01:32.712Z,0
2018-12-07T17:02:43.544Z,0
2018-12-07T17:03:53.910Z,0
2018-12-07T17:05:04.539Z,0